Time;durP1;ratioP1;P1;durP2;ratioP2;P2;SDS_P1;SDS_P2;PMS_P1;PMS_P2;Temp;Humidity;BMP_temperature;BMP_pressure;BME280_temperature;BME280_humidity;BME280_pressure;Samples;Min_cycle;Max_cycle;Signal;HPM_P1;HPM_P2
2023/12/02 00:00:26;;;;;;;;;;;;;;;29.99;64.62;100936.41;5066400;28;66400;-32
2023/12/02 00:02:55;;;;;;;;;;;;;;;30.02;64.27;100948.66;5068596;27;70502;-32
2023/12/02 00:05:25;;;;;;;;;;;;;;;30.04;64.89;100949.28;5073496;27;65907;-32
2023/12/02 00:07:55;;;;;;;;;;;;;;;30.07;64.85;100951.56;5063363;28;69459;-31
2023/12/02 00:10:25;;;;;;;;;;;;;;;30.09;65.33;100965.72;5063541;27;66925;-33
2023/12/02 00:12:54;;;;;;;;;;;;;;;30.11;65.51;100969.00;5063071;27;70676;-31
2023/12/02 00:15:24;;;;;;;;;;;;;;;30.16;66.32;100960.28;5076646;28;67231;-32
2023/12/02 00:17:54;;;;;;;;;;;;;;;30.18;66.08;100964.44;5062052;28;69203;-32
2023/12/02 00:20:24;;;;;;;;;;;;;;;30.20;66.91;100972.31;5067509;28;67077;-32
2023/12/02 00:22:53;;;;;;;;;;;;;;;30.22;66.91;100973.78;5075808;28;70467;-33
2023/12/02 00:25:23;;;;;;;;;;;;;;;30.23;67.12;100983.59;5068165;28;66101;-32
2023/12/02 00:27:53;;;;;;;;;;;;;;;30.25;66.56;100980.66;5066375;27;70038;-31
2023/12/02 00:30:22;;;;;;;;;;;;;;;30.27;67.15;100984.00;5063442;28;66732;-31
2023/12/02 00:32:52;;;;;;;;;;;;;;;30.30;67.35;100982.72;5064160;28;70651;-31
2023/12/02 00:35:22;;;;;;;;;;;;;;;30.31;66.76;100990.63;5067101;28;66083;-32
2023/12/02 00:37:51;;;;;;;;;;;;;;;30.32;66.91;100986.88;5064734;28;70584;-32
2023/12/02 00:40:21;;;;;;;;;;;;;;;30.36;67.05;100993.53;5064194;28;66095;-32
2023/12/02 00:42:51;;;;;;;;;;;;;;;30.38;67.47;101001.44;5063805;28;70509;-32
2023/12/02 00:45:20;;;;;;;;;;;;;;;30.40;67.18;101011.00;5065326;28;66838;-32
2023/12/02 00:47:50;;;;;;;;;;;;;;;30.39;67.78;101009.31;5067060;27;69753;-32
2023/12/02 00:50:19;;;;;;;;;;;;;;;30.44;67.77;101014.09;5067795;28;65760;-31
2023/12/02 00:52:49;;;;;;;;;;;;;;;30.44;67.33;101016.81;5067364;28;70754;-32
2023/12/02 00:55:18;;;;;;;;;;;;;;;30.47;68.36;101021.78;5063515;28;65970;-31
2023/12/02 00:57:48;;;;;;;;;;;;;;;30.46;68.56;101020.97;5082579;28;69813;-32
2023/12/02 01:00:18;;;;;;;;;;;;;;;30.48;68.90;101023.47;5082773;27;65417;-32
2023/12/02 01:02:48;;;;;;;;;;;;;;;30.48;69.10;101035.13;5063983;28;69699;-33
2023/12/02 01:05:17;;;;;;;;;;;;;;;30.50;69.33;101037.59;5077933;28;66941;-32
2023/12/02 01:07:47;;;;;;;;;;;;;;;30.54;69.98;101044.28;5083052;27;69647;-32
2023/12/02 01:10:17;;;;;;;;;;;;;;;30.54;69.89;101038.84;5080361;27;66131;-31
2023/12/02 01:12:46;;;;;;;;;;;;;;;30.56;70.11;101046.75;5083405;28;70329;-32
2023/12/02 01:15:16;;;;;;;;;;;;;;;30.57;70.60;101049.25;5077663;28;66194;-32
2023/12/02 01:17:46;;;;;;;;;;;;;;;30.58;70.94;101050.91;5066439;28;69937;-34
2023/12/02 01:20:15;;;;;;;;;;;;;;;30.59;71.44;101055.28;5069579;28;66171;-32
2023/12/02 01:22:46;;;;;;;;;;;;;;;30.59;70.73;101058.00;5062402;28;69428;-33
2023/12/02 01:25:16;;;;;;;;;;;;;;;30.60;70.69;101059.66;5075205;28;66708;-32
2023/12/02 01:27:45;;;;;;;;;;;;;;;30.58;70.88;101067.16;5081748;27;70387;-31
2023/12/02 01:30:15;;;;;;;;;;;;;;;30.60;70.88;101062.38;5079798;27;65926;-32
2023/12/02 01:32:45;;;;;;;;;;;;;;;30.63;71.09;101070.06;5080902;27;70366;-32
2023/12/02 01:35:15;;;;;;;;;;;;;;;30.65;72.53;101069.84;5073806;28;65510;-33
2023/12/02 01:37:44;;;;;;;;;;;;;;;30.66;72.58;101063.38;5066579;27;70954;-32
2023/12/02 01:40:14;;;;;;;;;;;;;;;30.68;72.65;101066.72;5064356;28;67183;-32
2023/12/02 01:42:44;;;;;;;;;;;;;;;30.70;73.09;101065.44;5072694;27;69987;-32
2023/12/02 01:45:14;;;;;;;;;;;;;;;30.71;72.97;101072.53;5070960;27;66910;-32
2023/12/02 01:47:44;;;;;;;;;;;;;;;30.76;73.26;101073.75;5067969;27;69893;-31
2023/12/02 01:50:14;;;;;;;;;;;;;;;30.77;73.98;101075.41;5062582;28;66170;-32
2023/12/02 01:52:44;;;;;;;;;;;;;;;30.81;74.04;101082.09;5063784;28;69507;-32
2023/12/02 01:55:13;;;;;;;;;;;;;;;30.82;74.11;101091.88;5066227;27;66290;-32
2023/12/02 01:57:44;;;;;;;;;;;;;;;30.85;73.77;101089.56;5064010;28;70122;-32
2023/12/02 02:00:14;;;;;;;;;;;;;;;30.87;74.28;101094.75;5060569;28;66620;-32
2023/12/02 02:02:43;;;;;;;;;;;;;;;30.87;74.34;101102.88;5062449;28;70447;-33
2023/12/02 02:05:13;;;;;;;;;;;;;;;30.89;74.13;101104.34;5062432;28;67342;-34
2023/12/02 02:07:43;;;;;;;;;;;;;;;30.90;73.60;101102.47;5067760;28;70690;-31
2023/12/02 02:10:12;;;;;;;;;;;;;;;30.91;73.80;101106.84;5078013;28;66140;-31
2023/12/02 02:12:42;;;;;;;;;;;;;;;30.90;73.60;101102.47;5081096;27;70599;-32
2023/12/02 02:15:11;;;;;;;;;;;;;;;30.90;73.69;101107.91;5068041;28;66142;-33
2023/12/02 02:17:41;;;;;;;;;;;;;;;30.91;74.11;101104.97;5079598;27;70515;-32
2023/12/02 02:20:11;;;;;;;;;;;;;;;30.93;74.05;101113.72;5080684;27;66967;-32
2023/12/02 02:22:41;;;;;;;;;;;;;;;30.94;73.74;101109.13;5080685;27;70409;-32
2023/12/02 02:25:11;;;;;;;;;;;;;;;30.94;74.46;101114.53;5071266;28;66351;-32
2023/12/02 02:27:40;;;;;;;;;;;;;;;30.96;74.70;101112.44;5063323;28;69865;-32
2023/12/02 02:30:10;;;;;;;;;;;;;;;30.97;74.69;101118.69;5071515;27;67108;-33
2023/12/02 02:32:43;;;;;;;;;;;;;;;31.00;75.02;101110.13;5065546;28;62747;-31
2023/12/02 02:35:13;;;;;;;;;;;;;;;31.03;74.81;101110.53;5065808;28;67061;-31
2023/12/02 02:37:43;;;;;;;;;;;;;;;31.05;75.55;101111.16;5067148;27;70626;-34
2023/12/02 02:40:13;;;;;;;;;;;;;;;31.08;75.89;101104.47;5066846;28;66303;-34
2023/12/02 02:42:43;;;;;;;;;;;;;;;31.09;75.29;101096.13;5063403;28;70575;-33
2023/12/02 02:45:13;;;;;;;;;;;;;;;31.11;75.22;101096.72;5066949;28;66053;-32
2023/12/02 02:47:43;;;;;;;;;;;;;;;31.14;75.27;101096.28;5073203;27;70442;-32
2023/12/02 02:50:12;;;;;;;;;;;;;;;31.16;75.71;101096.91;5066733;27;66351;-34
2023/12/02 02:52:43;;;;;;;;;;;;;;;31.21;75.97;101095.44;5062968;28;70491;-33
2023/12/02 02:55:12;;;;;;;;;;;;;;;31.22;76.25;101094.38;5064029;27;66817;-33
2023/12/02 02:57:42;;;;;;;;;;;;;;;31.25;76.26;101099.38;5062237;28;70220;-33
2023/12/02 03:00:13;;;;;;;;;;;;;;;31.29;76.50;101095.19;5061935;28;66885;-33
2023/12/02 03:02:42;;;;;;;;;;;;;;;31.31;77.07;101095.78;5063631;27;70277;-34
2023/12/02 03:05:12;;;;;;;;;;;;;;;31.32;77.51;101087.44;5063631;28;66425;-33
2023/12/02 03:07:42;;;;;;;;;;;;;;;31.36;77.66;101074.31;5064730;27;69077;-34
2023/12/02 03:10:12;;;;;;;;;;;;;;;31.38;77.92;101066.78;5078380;27;65656;-33
2023/12/02 03:12:42;;;;;;;;;;;;;;;31.42;78.39;101080.72;5067445;28;70345;-32
2023/12/02 03:15:13;;;;;;;;;;;;;;;31.45;78.47;101072.97;5067952;28;66785;-33
2023/12/02 03:17:42;;;;;;;;;;;;;;;31.47;78.52;101070.88;5064754;27;70850;-32
2023/12/02 03:20:12;;;;;;;;;;;;;;;31.50;78.84;101065.03;5066992;28;66127;-32
2023/12/02 03:22:42;;;;;;;;;;;;;;;31.52;78.99;101062.94;5060627;28;70983;-34
2023/12/02 03:25:12;;;;;;;;;;;;;;;31.54;79.49;101054.59;5064958;28;66113;-32
2023/12/02 03:27:42;;;;;;;;;;;;;;;31.56;79.28;101058.72;5081101;27;70549;-32
2023/12/02 03:30:12;;;;;;;;;;;;;;;31.58;79.37;101048.47;5067143;27;66784;-34
2023/12/02 03:32:43;;;;;;;;;;;;;;;31.60;80.09;101049.09;5069325;27;70429;-33
2023/12/02 03:35:12;;;;;;;;;;;;;;;31.64;79.98;101046.78;5068574;28;65796;-32
2023/12/02 03:37:42;;;;;;;;;;;;;;;31.67;80.27;101040.06;5074653;28;70003;-32
2023/12/02 03:40:13;;;;;;;;;;;;;;;31.69;80.27;101046.13;5068855;28;65705;-32
2023/12/02 03:42:42;;;;;;;;;;;;;;;31.72;79.98;101056.50;5068491;28;69948;-32
2023/12/02 03:45:12;;;;;;;;;;;;;;;31.73;80.60;101044.59;5069805;27;66578;-31
2023/12/02 03:47:42;;;;;;;;;;;;;;;31.73;80.24;101050.88;5066610;28;70608;-33
2023/12/02 03:50:12;;;;;;;;;;;;;;;31.74;80.23;101038.97;5069156;28;66115;-32
2023/12/02 03:52:46;;;;;;;;;;;;;;;31.77;80.50;101043.13;5065499;28;70411;-32
2023/12/02 03:55:15;;;;;;;;;;;;;;;31.79;80.36;101038.31;5073428;28;66580;-33
2023/12/02 03:57:45;;;;;;;;;;;;;;;31.80;80.21;101042.69;5068459;28;70347;-32
2023/12/02 04:00:15;;;;;;;;;;;;;;;31.82;80.36;101040.56;5067279;28;66801;-33
2023/12/02 04:02:45;;;;;;;;;;;;;;;31.83;80.52;101037.63;5073252;27;68717;-33
2023/12/02 04:05:16;;;;;;;;;;;;;;;31.87;80.23;101027.16;5069012;27;66401;-33
2023/12/02 04:07:46;;;;;;;;;;;;;;;31.87;80.53;101027.16;5068473;28;70729;-33
2023/12/02 04:10:16;;;;;;;;;;;;;;;31.89;80.27;101025.06;5066725;28;65688;-33
2023/12/02 04:12:46;;;;;;;;;;;;;;;31.91;80.21;101017.56;5069224;28;69446;-33
2023/12/02 04:15:16;;;;;;;;;;;;;;;31.93;80.35;101023.59;5065585;28;65806;-33
2023/12/02 04:17:45;;;;;;;;;;;;;;;31.94;80.10;101017.09;5072684;27;69192;-34
2023/12/02 04:20:15;;;;;;;;;;;;;;;31.95;80.26;101013.31;5068264;28;66993;-33
2023/12/02 04:22:45;;;;;;;;;;;;;;;31.98;79.88;101018.34;5062755;28;69389;-33
2023/12/02 04:25:15;;;;;;;;;;;;;;;31.98;79.97;101014.75;5072174;28;66366;-33
2023/12/02 04:27:46;;;;;;;;;;;;;;;31.99;79.96;101009.13;5067497;28;69102;-33
2023/12/02 04:30:16;;;;;;;;;;;;;;;32.01;80.05;101012.47;5071622;28;66360;-32
2023/12/02 04:32:45;;;;;;;;;;;;;;;32.02;80.08;101007.84;5071269;27;70365;-32
2023/12/02 04:35:16;;;;;;;;;;;;;;;32.03;80.13;100999.47;5065311;27;66361;-34
2023/12/02 04:37:51;;;;;;;;;;;;;;;32.04;79.71;100990.28;5071465;28;69774;-33
2023/12/02 04:40:22;;;;;;;;;;;;;;;32.05;79.38;100982.97;5068470;27;65682;-33
2023/12/02 04:42:51;;;;;;;;;;;;;;;32.04;79.10;100984.88;5064792;28;70315;-33
2023/12/02 04:45:23;;;;;;;;;;;;;;;32.04;79.15;100984.88;5066253;27;64599;-33
2023/12/02 04:47:52;;;;;;;;;;;;;;;32.03;79.09;100972.34;5073532;28;69447;-34
2023/12/02 04:50:22;;;;;;;;;;;;;;;32.03;78.91;100966.91;5082275;28;66086;-34
2023/12/02 04:52:54;;;;;;;;;;;;;;;32.03;78.44;100957.94;5081754;27;68982;-34
2023/12/02 04:55:23;;;;;;;;;;;;;;;32.04;78.04;100946.88;5083125;27;66127;-34
2023/12/02 04:57:53;;;;;;;;;;;;;;;32.03;77.58;100934.34;5083295;27;68884;-34
2023/12/02 05:00:23;;;;;;;;;;;;;;;32.02;77.12;100935.41;5082238;27;65491;-33
2023/12/02 05:02:53;;;;;;;;;;;;;;;32.03;77.25;100928.09;5064982;27;69342;-33
2023/12/02 05:05:22;;;;;;;;;;;;;;;32.02;76.98;100916.41;5073351;28;65634;-33
2023/12/02 05:07:52;;;;;;;;;;;;;;;32.03;76.61;100909.94;5066934;27;70036;-34
2023/12/02 05:10:22;;;;;;;;;;;;;;;32.03;75.99;100907.22;5071587;27;65873;-33
2023/12/02 05:12:51;;;;;;;;;;;;;;;32.02;75.32;100905.56;5082464;27;69757;-34
2023/12/02 05:15:21;;;;;;;;;;;;;;;32.02;74.98;100902.03;5082592;27;66349;-33
2023/12/02 05:17:51;;;;;;;;;;;;;;;32.02;74.79;100900.13;5083404;27;69142;-34
2023/12/02 05:20:20;;;;;;;;;;;;;;;32.01;74.33;100892.22;5082844;27;66134;-34
2023/12/02 05:22:50;;;;;;;;;;;;;;;32.00;74.70;100883.25;5079474;28;71061;-33
2023/12/02 05:25:20;;;;;;;;;;;;;;;32.03;74.40;100879.25;5081956;27;66431;-35
2023/12/02 05:27:50;;;;;;;;;;;;;;;32.01;74.36;100875.94;5081285;27;69987;-33
2023/12/02 05:30:20;;;;;;;;;;;;;;;32.01;74.24;100876.78;5080317;27;66877;-34
2023/12/02 05:32:51;;;;;;;;;;;;;;;32.00;74.12;100863.44;5081511;28;70852;-33
2023/12/02 05:35:22;;;;;;;;;;;;;;;32.02;73.59;100870.28;5082121;28;66400;-33
2023/12/02 05:37:53;;;;;;;;;;;;;;;31.99;73.17;100859.91;5080952;27;70944;-34
2023/12/02 05:40:22;;;;;;;;;;;;;;;31.99;72.97;100857.19;5082056;27;66778;-35
2023/12/02 05:42:52;;;;;;;;;;;;;;;32.00;72.77;100847.16;5069457;28;69752;-33
2023/12/02 05:45:22;;;;;;;;;;;;;;;31.75;72.57;100806.56;5081165;27;66298;-33
2023/12/02 05:47:52;;;;;;;;;;;;;;;31.99;72.30;100850.94;5072857;27;70222;-33
2023/12/02 05:50:21;;;;;;;;;;;;;;;31.98;71.94;100850.13;5081876;27;66193;-32
2023/12/02 05:52:51;;;;;;;;;;;;;;;31.99;71.68;100840.91;5081238;27;70935;-33
2023/12/02 05:55:21;;;;;;;;;;;;;;;31.98;71.38;100835.69;5081145;27;66804;-33
2023/12/02 05:57:52;;;;;;;;;;;;;;;31.98;71.55;100828.41;5082046;28;70254;-33
2023/12/02 06:00:21;;;;;;;;;;;;;;;31.98;71.40;100833.84;5081540;28;65286;-33
2023/12/02 06:02:52;;;;;;;;;;;;;;;31.99;71.00;100832.78;5081711;27;70363;-32
2023/12/02 06:05:21;;;;;;;;;;;;;;;32.00;71.06;100831.69;5080989;28;67143;-35
2023/12/02 06:07:51;;;;;;;;;;;;;;;32.01;71.99;100835.25;5061733;28;70404;-33
2023/12/02 06:10:21;;;;;;;;;;;;;;;32.01;72.88;100822.53;5062963;28;65479;-33
2023/12/02 06:12:51;;;;;;;;;;;;;;;32.04;73.03;100821.25;5063298;27;70225;-32
2023/12/02 06:15:20;;;;;;;;;;;;;;;32.04;73.30;100811.22;5067056;28;66108;-33
2023/12/02 06:17:50;;;;;;;;;;;;;;;32.07;73.15;100814.50;5060349;28;70697;-32
2023/12/02 06:20:20;;;;;;;;;;;;;;;32.05;71.69;100815.56;5062175;28;66709;-33
2023/12/02 06:22:50;;;;;;;;;;;;;;;32.09;72.47;100817.81;5068663;28;69839;-32
2023/12/02 06:25:21;;;;;;;;;;;;;;;32.09;72.04;100806.97;5063936;28;65785;-31
2023/12/02 06:27:50;;;;;;;;;;;;;;;32.11;72.01;100810.28;5079840;27;69756;-32
2023/12/02 06:30:20;;;;;;;;;;;;;;;32.11;71.73;100810.28;5079615;27;67146;-33
2023/12/02 06:32:50;;;;;;;;;;;;;;;32.08;71.63;100808.03;5081227;27;70708;-31
2023/12/02 06:35:19;;;;;;;;;;;;;;;32.11;71.32;100799.44;5080649;27;66995;-32
2023/12/02 06:37:49;;;;;;;;;;;;;;;32.09;71.17;100794.22;5070408;28;70671;-32
2023/12/02 06:40:19;;;;;;;;;;;;;;;32.04;70.45;100794.94;5080569;28;66651;-32
2023/12/02 06:42:49;;;;;;;;;;;;;;;31.89;68.84;100790.94;5081092;27;70720;-34
2023/12/02 06:45:19;;;;;;;;;;;;;;;31.77;67.51;100785.47;5079616;28;68037;-32
2023/12/02 06:47:48;;;;;;;;;;;;;;;31.67;66.26;100787.88;5080997;27;69999;-32
2023/12/02 06:50:18;;;;;;;;;;;;;;;31.57;64.84;100783.84;5079392;28;65666;-33
2023/12/02 06:52:47;;;;;;;;;;;;;;;31.49;64.18;100776.00;5080240;27;70583;-32
2023/12/02 06:55:17;;;;;;;;;;;;;;;31.43;63.09;100782.34;5080678;27;67064;-31
2023/12/02 06:57:50;;;;;;;;;;;;;;;31.40;61.87;100780.09;5080180;27;69630;-32
2023/12/02 07:00:19;;;;;;;;;;;;;;;31.32;61.03;100774.94;5080707;27;65803;-33
2023/12/02 07:02:49;;;;;;;;;;;;;;;31.26;60.39;100776.66;5067773;28;70791;-32
2023/12/02 07:05:18;;;;;;;;;;;;;;;31.20;59.41;100768.59;5080973;27;65750;-32
2023/12/02 07:07:48;;;;;;;;;;;;;;;31.14;58.59;100768.44;5083082;27;69429;-33
2023/12/02 07:10:18;;;;;;;;;;;;;;;31.11;57.91;100762.63;5084035;28;67064;-32
2023/12/02 07:12:48;;;;;;;;;;;;;;;31.07;57.66;100759.56;5084390;27;69884;-33
2023/12/02 07:15:17;;;;;;;;;;;;;;;31.00;56.62;100755.25;5084772;28;66797;-32
2023/12/02 07:17:48;;;;;;;;;;;;;;;31.00;56.68;100756.06;5084362;27;69714;-33
2023/12/02 07:20:18;;;;;;;;;;;;;;;30.98;55.86;100762.78;5083945;27;65727;-33
2023/12/02 07:22:49;;;;;;;;;;;;;;;30.95;55.77;100764.03;5084364;27;70139;-32
2023/12/02 07:25:18;;;;;;;;;;;;;;;30.93;55.16;100758.03;5079516;27;66616;-35
2023/12/02 07:27:48;;;;;;;;;;;;;;;30.87;54.97;100761.63;5081629;27;69738;-32
2023/12/02 07:30:18;;;;;;;;;;;;;;;30.87;54.31;100767.03;5084594;27;66648;-32
2023/12/02 07:32:51;;;;;;;;;;;;;;;30.82;54.25;100758.78;5084378;28;69836;-33
2023/12/02 07:35:20;;;;;;;;;;;;;;;30.80;53.60;100760.88;5083896;27;66750;-34
2023/12/02 07:37:50;;;;;;;;;;;;;;;30.79;53.30;100753.78;5084173;28;70621;-33
2023/12/02 07:40:19;;;;;;;;;;;;;;;30.76;53.05;100759.63;5085126;28;66564;-32
2023/12/02 07:42:49;;;;;;;;;;;;;;;30.74;52.88;100757.16;5083840;27;70072;-34
2023/12/02 07:45:18;;;;;;;;;;;;;;;30.71;52.68;100749.47;5085144;27;66685;-36
2023/12/02 07:47:48;;;;;;;;;;;;;;;30.71;52.46;100741.34;5082793;28;69781;-34
2023/12/02 07:50:18;;;;;;;;;;;;;;;30.70;52.54;100743.22;5084265;27;65417;-33
2023/12/02 07:52:48;;;;;;;;;;;;;;;30.69;51.98;100749.69;5084621;27;70427;-33
2023/12/02 07:55:17;;;;;;;;;;;;;;;30.66;52.01;100752.00;5072779;28;65713;-35
2023/12/02 07:57:47;;;;;;;;;;;;;;;30.65;51.77;100753.91;5083437;28;70288;-35
2023/12/02 08:00:17;;;;;;;;;;;;;;;30.62;51.35;100748.94;5084941;28;66650;-34
2023/12/02 08:02:47;;;;;;;;;;;;;;;30.63;51.22;100758.69;5084320;28;69909;-33
2023/12/02 08:05:17;;;;;;;;;;;;;;;30.63;51.42;100760.56;5083760;28;65879;-32
2023/12/02 08:07:51;;;;;;;;;;;;;;;30.63;51.16;100766.00;5081518;27;69848;-34
2023/12/02 08:10:21;;;;;;;;;;;;;;;30.62;50.95;100753.50;5072205;27;65554;-31
2023/12/02 08:12:51;;;;;;;;;;;;;;;30.60;50.78;100753.72;5070976;28;70483;-32
2023/12/02 08:15:21;;;;;;;;;;;;;;;30.62;50.58;100748.94;5084333;28;65750;-33
2023/12/02 08:17:50;;;;;;;;;;;;;;;30.61;50.92;100751.84;5077430;27;70303;-32
2023/12/02 08:20:20;;;;;;;;;;;;;;;30.71;54.14;100747.59;5082015;27;66294;-33
2023/12/02 08:22:49;;;;;;;;;;;;;;;30.89;55.92;100743.28;5072062;27;69659;-33
2023/12/02 08:25:19;;;;;;;;;;;;;;;31.08;56.17;100753.06;5077554;28;66537;-33
2023/12/02 08:27:51;;;;;;;;;;;;;;;31.24;56.54;100757.09;5070573;27;69679;-34
2023/12/02 08:30:21;;;;;;;;;;;;;;;31.36;56.50;100757.19;5075025;27;66106;-32
2023/12/02 08:32:50;;;;;;;;;;;;;;;31.45;56.83;100753.09;5076937;28;70261;-34
2023/12/02 08:35:20;;;;;;;;;;;;;;;31.54;57.08;100751.75;5078191;27;66127;-34
2023/12/02 08:37:51;;;;;;;;;;;;;;;31.63;57.66;100751.44;5081068;28;69689;-33
2023/12/02 08:40:20;;;;;;;;;;;;;;;31.69;57.71;100751.34;5081833;28;66342;-33
2023/12/02 08:42:50;;;;;;;;;;;;;;;31.76;58.07;100754.81;5080247;28;69959;-34
2023/12/02 08:45:20;;;;;;;;;;;;;;;31.81;57.92;100757.63;5083806;27;66941;-34
2023/12/02 08:47:49;;;;;;;;;;;;;;;31.87;58.27;100755.06;5083817;27;70261;-34
2023/12/02 08:50:19;;;;;;;;;;;;;;;31.91;58.54;100751.69;5081930;27;65764;-35
2023/12/02 08:52:49;;;;;;;;;;;;;;;31.95;58.70;100750.16;5083840;27;70457;-34
2023/12/02 08:55:19;;;;;;;;;;;;;;;31.99;58.75;100753.28;5083553;27;66693;-34
2023/12/02 08:57:49;;;;;;;;;;;;;;;31.97;59.29;100756.19;5079846;28;70071;-34
2023/12/02 09:00:19;;;;;;;;;;;;;;;31.80;61.29;100755.16;5071014;28;65829;-33
2023/12/02 09:02:48;;;;;;;;;;;;;;;31.71;61.57;100756.56;5067901;28;69453;-34
2023/12/02 09:05:18;;;;;;;;;;;;;;;31.68;62.19;100762.41;5063099;28;66350;-33
2023/12/02 09:07:47;;;;;;;;;;;;;;;31.63;62.23;100762.28;5067395;28;68968;-34
2023/12/02 09:10:18;;;;;;;;;;;;;;;31.64;62.58;100766.66;5066692;28;65177;-35
2023/12/02 09:12:48;;;;;;;;;;;;;;;31.63;62.93;100754.97;5068155;27;69757;-34
2023/12/02 09:15:18;;;;;;;;;;;;;;;31.63;63.36;100765.00;5066338;28;66371;-33
2023/12/02 09:18:07;;;;;;;;;;;;;;;31.66;63.59;100764.53;5070910;28;70315;-33
2023/12/02 09:20:50;;;;;;;;;;;;;;;31.67;63.92;100777.84;5069097;27;66566;-34
2023/12/02 09:23:20;;;;;;;;;;;;;;;31.71;64.23;100776.34;5065421;27;70828;-32
2023/12/02 09:25:53;;;;;;;;;;;;;;;31.70;64.99;100777.41;5065736;28;66978;-34
2023/12/02 09:28:27;;;;;;;;;;;;;;;31.72;65.50;100785.31;5065058;28;69686;-32
2023/12/02 09:30:58;;;;;;;;;;;;;;;31.75;65.89;100790.28;5068965;28;65571;-32
2023/12/02 09:33:38;;;;;;;;;;;;;;;31.75;66.81;100790.28;5069796;28;69583;-32
2023/12/02 09:36:28;;;;;;;;;;;;;;;31.77;66.61;100793.59;5066947;28;66649;-33
2023/12/02 09:39:18;;;;;;;;;;;;;;;31.76;67.20;100797.34;5064948;28;70066;-32
2023/12/02 09:41:49;;;;;;;;;;;;;;;31.78;67.10;100792.53;5065658;28;66057;-33
2023/12/02 09:44:34;;;;;;;;;;;;;;;31.92;65.65;100796.75;5067186;28;69205;-33
2023/12/02 09:47:10;;;;;;;;;;;;;;;32.01;64.68;100800.81;5079107;28;67063;-33
2023/12/02 09:49:45;;;;;;;;;;;;;;;32.08;64.49;100800.72;5081002;28;68943;-33
2023/12/02 09:52:36;;;;;;;;;;;;;;;32.13;64.15;100803.56;5078129;28;65506;-32
2023/12/02 09:55:11;;;;;;;;;;;;;;;32.17;64.25;100807.47;5082288;27;69102;-32
2023/12/02 09:57:44;;;;;;;;;;;;;;;32.21;64.12;100816.00;5080795;27;66987;-32
2023/12/02 10:00:30;;;;;;;;;;;;;;;32.22;63.98;100823.06;5081579;27;70116;-33
2023/12/02 10:03:38;;;;;;;;;;;;;;;32.24;64.01;100826.38;5079450;27;66046;-31
2023/12/02 10:06:10;;;;;;;;;;;;;;;32.26;63.71;100816.09;5059265;28;70557;-32
2023/12/02 10:08:54;;;;;;;;;;;;;;;32.28;63.61;100824.84;5058339;28;66247;-32
2023/12/02 10:11:24;;;;;;;;;;;;;;;32.27;63.74;100826.75;5071349;28;70367;-34
2023/12/02 10:13:59;;;;;;;;;;;;;;;32.08;67.03;100832.44;5071712;28;66834;-33
2023/12/02 10:16:32;;;;;;;;;;;;;;;31.99;68.62;100838.19;5066803;28;70368;-35
2023/12/02 10:19:04;;;;;;;;;;;;;;;31.92;69.79;100840.16;5067132;28;66919;-34
2023/12/02 10:21:37;;;;;;;;;;;;;;;31.89;70.19;100837.88;5069600;28;68874;-35
2023/12/02 10:24:11;;;;;;;;;;;;;;;31.89;71.33;100851.44;5067253;27;66920;-34
2023/12/02 10:26:59;;;;;;;;;;;;;;;31.85;71.59;100844.81;5065024;28;69903;-34
2023/12/02 10:29:35;;;;;;;;;;;;;;;31.83;72.21;100850.47;5063730;28;66515;-33
2023/12/02 10:32:08;;;;;;;;;;;;;;;31.81;72.19;100854.44;5079573;28;70921;-34
2023/12/02 10:35:07;;;;;;;;;;;;;;;31.81;72.07;100849.03;5082472;28;66787;-32
2023/12/02 10:37:39;;;;;;;;;;;;;;;31.78;72.02;100846.78;5063754;28;70406;-34
2023/12/02 10:40:10;;;;;;;;;;;;;;;31.78;72.47;100854.91;5070979;28;66610;-33
2023/12/02 10:42:39;;;;;;;;;;;;;;;31.78;72.22;100855.72;5079982;28;70698;-33
2023/12/02 10:45:12;;;;;;;;;;;;;;;31.78;72.52;100865.75;5082031;27;66500;-33
2023/12/02 10:47:42;;;;;;;;;;;;;;;31.75;72.75;100864.31;5081893;27;69804;-33
2023/12/02 10:50:13;;;;;;;;;;;;;;;31.74;72.63;100875.41;5080683;28;65694;-33
2023/12/02 10:52:47;;;;;;;;;;;;;;;31.73;72.70;100880.03;5081762;27;70869;-32
2023/12/02 10:55:17;;;;;;;;;;;;;;;31.71;72.87;100882.13;5081842;27;66189;-34
2023/12/02 10:57:47;;;;;;;;;;;;;;;31.70;72.86;100890.47;5080580;27;69763;-33
2023/12/02 11:00:17;;;;;;;;;;;;;;;31.68;72.81;100895.28;5082059;28;66487;-34
2023/12/02 11:02:51;;;;;;;;;;;;;;;31.68;73.06;100898.00;5068290;28;69858;-33
2023/12/02 11:05:23;;;;;;;;;;;;;;;31.68;73.22;100900.72;5080408;27;65682;-33
2023/12/02 11:07:54;;;;;;;;;;;;;;;31.66;73.04;100910.97;5080974;27;70245;-32
2023/12/02 11:10:31;;;;;;;;;;;;;;;31.67;73.34;100916.16;5080391;27;65906;-35
2023/12/02 11:13:04;;;;;;;;;;;;;;;31.65;73.44;100904.72;5080586;27;70824;-34
2023/12/02 11:15:39;;;;;;;;;;;;;;;31.64;73.98;100915.78;5081233;27;65974;-32
2023/12/02 11:18:18;;;;;;;;;;;;;;;31.65;74.65;100920.13;5081026;28;70272;-35
2023/12/02 11:21:02;;;;;;;;;;;;;;;31.64;74.35;100918.50;5081867;27;66026;-34
2023/12/02 11:23:34;;;;;;;;;;;;;;;31.63;74.52;100927.69;5078207;28;70471;-35
2023/12/02 11:26:11;;;;;;;;;;;;;;;31.62;74.22;100934.97;5081187;27;65695;-35
2023/12/02 11:28:41;;;;;;;;;;;;;;;31.60;74.38;100940.63;5064931;28;69981;-34
2023/12/02 11:31:19;;;;;;;;;;;;;;;31.58;74.84;100940.03;5077934;28;67110;-36
2023/12/02 11:34:08;;;;;;;;;;;;;;;31.55;75.24;100945.91;5080303;27;69957;-36
2023/12/02 11:36:54;;;;;;;;;;;;;;;31.56;75.33;100950.25;5081389;28;66930;-36
2023/12/02 11:39:34;;;;;;;;;;;;;;;31.55;75.78;100948.59;5080288;28;69992;-34
2023/12/02 11:42:06;;;;;;;;;;;;;;;31.53;75.96;100956.13;5080210;27;65541;-34
2023/12/02 11:44:46;;;;;;;;;;;;;;;31.54;75.87;100960.53;5079010;28;70082;-34
2023/12/02 11:47:23;;;;;;;;;;;;;;;31.55;76.07;100958.63;5081506;28;65672;-36
2023/12/02 11:50:13;;;;;;;;;;;;;;;31.55;76.23;100959.47;5081031;27;70544;-34
2023/12/02 11:53:01;;;;;;;;;;;;;;;31.55;76.10;100964.88;5058473;27;66883;-34
2023/12/02 11:55:46;;;;;;;;;;;;;;;31.53;75.90;100966.16;5083188;27;69757;-33
2023/12/02 11:58:26;;;;;;;;;;;;;;;31.52;76.03;100970.75;5085198;27;66928;-33
2023/12/02 12:01:14;;;;;;;;;;;;;;;31.53;76.30;100980.53;5083722;27;70647;-33
2023/12/02 12:04:02;;;;;;;;;;;;;;;31.54;76.35;100979.50;5084673;28;66438;-34
2023/12/02 12:06:39;;;;;;;;;;;;;;;31.52;76.38;100983.47;5082575;28;70241;-34
2023/12/02 12:09:21;;;;;;;;;;;;;;;31.52;76.69;100988.91;5084121;27;67132;-34
2023/12/02 12:11:52;;;;;;;;;;;;;;;31.52;76.45;100992.44;5084317;27;70394;-34
2023/12/02 12:14:24;;;;;;;;;;;;;;;31.51;76.85;100996.22;5084276;28;66546;-35
2023/12/02 12:16:54;;;;;;;;;;;;;;;31.51;76.63;100993.50;5082471;27;69882;-34
2023/12/02 12:19:23;;;;;;;;;;;;;;;31.51;77.12;100998.06;5084672;27;66680;-33
2023/12/02 12:21:53;;;;;;;;;;;;;;;31.51;77.07;100996.22;5084034;27;70755;-37
2023/12/02 12:24:23;;;;;;;;;;;;;;;31.51;76.90;100998.94;5082294;27;66858;-33
2023/12/02 12:26:52;;;;;;;;;;;;;;;31.50;76.38;100997.25;5084471;28;70543;-33
2023/12/02 12:29:22;;;;;;;;;;;;;;;31.50;76.65;100994.53;5076596;28;66304;-32
2023/12/02 12:31:55;;;;;;;;;;;;;;;31.49;76.58;101002.91;5081720;27;69832;-34
2023/12/02 12:34:25;;;;;;;;;;;;;;;31.53;77.11;101004.09;5065402;28;64320;-33
2023/12/02 12:36:55;;;;;;;;;;;;;;;31.53;76.94;101004.94;5067226;28;69252;-34
2023/12/02 12:39:25;;;;;;;;;;;;;;;31.55;77.60;101010.97;5060461;28;66355;-33
2023/12/02 12:41:56;;;;;;;;;;;;;;;31.57;77.14;101011.59;5063171;28;69973;-34
2023/12/02 12:44:26;;;;;;;;;;;;;;;31.57;77.24;101011.59;5069634;28;66147;-33
2023/12/02 12:46:56;;;;;;;;;;;;;;;31.59;77.12;101014.06;5074878;27;70408;-34
2023/12/02 12:49:28;;;;;;;;;;;;;;;31.59;77.19;101020.34;5065312;28;66489;-34
2023/12/02 12:52:00;;;;;;;;;;;;;;;31.58;77.39;101013.25;5069880;27;69856;-35
2023/12/02 12:54:33;;;;;;;;;;;;;;;31.46;77.12;101025.88;5068291;28;66912;-34
2023/12/02 12:57:10;;;;;;;;;;;;;;;31.38;77.33;101024.25;5069557;27;69344;-35